Time;durP1;ratioP1;P1;durP2;ratioP2;P2;SDS_P1;SDS_P2;PMS_P1;PMS_P2;Temp;Humidity;BMP_temperature;BMP_pressure;BME280_temperature;BME280_humidity;BME280_pressure;Samples;Min_cycle;Max_cycle;Signal;HPM_P1;HPM_P2
2021/03/06 00:00:34;;;;;;;18.12;10.10;;;;;;;2.06;78.06;100852.00;1774911;80;22058;-74
2021/03/06 00:03:02;;;;;;;16.15;9.88;;;;;;;2.06;77.94;100838.23;1778358;79;21515;-74
2021/03/06 00:05:30;;;;;;;20.27;11.00;;;;;;;2.01;77.76;100835.74;1778341;80;20958;-74
2021/03/06 00:07:58;;;;;;;20.70;12.55;;;;;;;1.98;77.99;100855.22;1778356;80;21017;-75
2021/03/06 00:10:28;;;;;;;24.10;13.28;;;;;;;1.99;78.08;100864.66;1778408;80;20935;-72
2021/03/06 00:12:57;;;;;;;17.52;11.28;;;;;;;1.97;78.23;100870.75;1778377;80;22059;-74
2021/03/06 00:15:27;;;;;;;20.80;12.40;;;;;;;1.95;78.31;100864.76;1772992;81;20963;-73
2021/03/06 00:17:55;;;;;;;23.95;12.88;;;;;;;1.92;78.49;100863.09;1773035;81;21018;-73
2021/03/06 00:20:23;;;;;;;19.67;12.68;;;;;;;1.93;78.52;100868.66;1772956;81;21679;-75
2021/03/06 00:22:52;;;;;;;22.90;12.25;;;;;;;1.96;78.42;100869.91;1773059;79;20940;-74
2021/03/06 00:25:21;;;;;;;17.27;11.63;;;;;;;1.94;78.35;100870.38;1772963;81;21508;-75
2021/03/06 00:27:49;;;;;;;18.95;11.53;;;;;;;1.92;78.33;100864.83;1772872;81;21006;-74
2021/03/06 00:30:19;;;;;;;20.48;11.45;;;;;;;1.92;78.23;100869.56;1772981;79;21369;-75
2021/03/06 00:32:47;;;;;;;18.48;11.48;;;;;;;1.87;78.08;100864.93;1772878;81;21345;-73
2021/03/06 00:35:16;;;;;;;18.02;10.68;;;;;;;1.79;78.22;100865.06;1772970;81;20943;-73
2021/03/06 00:37:44;;;;;;;16.87;10.70;;;;;;;1.75;78.73;100858.69;1772949;81;21379;-72
2021/03/06 00:40:13;;;;;;;19.23;11.83;;;;;;;1.79;78.93;100860.34;1772841;81;20955;-72
2021/03/06 00:42:40;;;;;;;18.73;11.35;;;;;;;1.80;78.60;100859.03;1772950;81;20939;-74
2021/03/06 00:45:09;;;;;;;18.70;11.57;;;;;;;1.79;78.75;100849.55;1772853;79;20940;-73
2021/03/06 00:47:37;;;;;;;18.30;10.85;;;;;;;1.81;78.71;100850.83;1772940;81;21026;-75
2021/03/06 00:50:13;;;;;;;22.85;13.28;;;;;;;1.80;78.61;100856.86;1772968;81;21337;-73
2021/03/06 00:52:41;;;;;;;20.83;10.93;;;;;;;1.82;78.55;100856.39;1773150;79;21050;-74
2021/03/06 00:55:11;;;;;;;19.45;11.83;;;;;;;1.80;78.66;100861.61;1772998;81;22059;-74
2021/03/06 00:57:39;;;;;;;18.75;11.22;;;;;;;1.81;78.74;100865.05;1772901;79;20961;-73
2021/03/06 01:00:10;;;;;;;17.90;10.53;;;;;;;1.78;78.79;100867.25;1772889;81;20919;-74
2021/03/06 01:02:38;;;;;;;15.55;10.03;;;;;;;1.77;78.88;100865.53;1772976;80;21368;-74
2021/03/06 01:05:07;;;;;;;15.45;10.70;;;;;;;1.77;78.82;100871.15;1772846;81;21032;-73
2021/03/06 01:07:35;;;;;;;16.62;10.23;;;;;;;1.67;78.73;100860.16;1773051;81;21421;-73
2021/03/06 01:10:10;;;;;;;14.50;10.40;;;;;;;1.72;78.80;100871.69;1773132;79;21050;-72
2021/03/06 01:12:38;;;;;;;15.05;9.78;;;;;;;1.72;78.84;100870.40;1774145;81;20896;-73
2021/03/06 01:15:07;;;;;;;17.40;11.25;;;;;;;1.71;78.97;100868.68;1728467;81;21745;-73
2021/03/06 01:17:35;;;;;;;16.17;10.15;;;;;;;1.69;79.04;100866.15;1768049;79;20970;-73
2021/03/06 01:20:06;;;;;;;17.40;10.70;;;;;;;1.65;79.15;100862.76;1768126;81;21405;-73
2021/03/06 01:22:34;;;;;;;14.10;9.75;;;;;;;1.60;79.12;100858.13;1767978;81;21022;-74
2021/03/06 01:25:04;;;;;;;19.00;11.38;;;;;;;1.55;79.22;100863.80;1768101;79;21373;-75
2021/03/06 01:27:32;;;;;;;16.67;10.45;;;;;;;1.54;79.35;100849.64;1768025;80;21194;-73
2021/03/06 01:29:59;;;;;;;17.70;9.88;;;;;;;1.50;79.41;100849.28;1768052;81;20959;-73
2021/03/06 01:32:27;;;;;;;15.30;10.03;;;;;;;1.44;79.61;100844.61;1767975;81;20971;-74
2021/03/06 01:34:55;;;;;;;18.07;10.32;;;;;;;1.45;79.75;100845.05;1767877;81;21066;-76
2021/03/06 01:37:23;;;;;;;18.70;11.35;;;;;;;1.44;79.97;100845.91;1767977;80;20959;-74
2021/03/06 01:39:51;;;;;;;16.32;10.53;;;;;;;1.45;80.02;100850.21;1767937;79;21805;-73
2021/03/06 01:42:21;;;;;;;16.62;11.57;;;;;;;1.47;79.83;100856.66;1767894;81;20955;-74
2021/03/06 01:44:51;;;;;;;19.20;12.63;;;;;;;1.44;79.89;100852.37;1767990;80;20939;-74
2021/03/06 01:47:19;;;;;;;17.00;10.45;;;;;;;1.50;79.82;100858.32;1767878;81;20950;-74
2021/03/06 01:49:48;;;;;;;18.23;11.73;;;;;;;1.51;79.80;100861.30;1768014;79;21468;-73
2021/03/06 01:52:16;;;;;;;16.23;11.05;;;;;;;1.48;79.84;100861.38;1768061;80;22270;-75
2021/03/06 01:54:47;;;;;;;18.67;10.20;;;;;;;1.44;79.98;100869.61;1766462;81;21145;-74
2021/03/06 01:57:15;;;;;;;19.75;11.60;;;;;;;1.40;80.21;100870.54;1768002;79;20991;-74
2021/03/06 01:59:43;;;;;;;19.52;10.40;;;;;;;1.38;80.23;100878.34;1767915;81;21057;-76
2021/03/06 02:02:12;;;;;;;15.23;9.50;;;;;;;1.36;80.21;100876.22;1768212;81;21445;-75
2021/03/06 02:04:40;;;;;;;14.90;10.32;;;;;;;1.35;80.19;100876.23;1742636;81;21361;-73
2021/03/06 02:07:08;;;;;;;17.70;10.40;;;;;;;1.34;80.36;100877.13;1768037;81;20967;-75
2021/03/06 02:09:36;;;;;;;18.75;12.07;;;;;;;1.35;80.43;100885.28;1768110;81;20958;-74
2021/03/06 02:12:29;;;;;;;14.68;9.85;;;;;;;1.34;80.57;100890.05;1768050;81;20955;-76
2021/03/06 02:15:25;;;;;;;19.25;10.82;;;;;;;1.39;80.74;100905.88;1769114;80;20935;-74
2021/03/06 02:18:04;;;;;;;17.30;11.03;;;;;;;1.43;80.50;100905.39;1770254;79;22273;-74
2021/03/06 02:20:47;;;;;;;18.25;10.70;;;;;;;1.43;80.41;100911.84;1758581;81;20974;-75
2021/03/06 02:23:49;;;;;;;17.23;9.98;;;;;;;1.47;80.27;100903.58;1845822;76;22419;-75
2021/03/06 02:27:10;;;;;;;14.43;9.40;;;;;;;1.40;80.24;100901.13;1818076;78;20950;-74
2021/03/06 02:29:59;;;;;;;16.97;10.75;;;;;;;1.35;80.34;100909.38;1747261;81;21426;-74
2021/03/06 02:32:42;;;;;;;18.48;11.08;;;;;;;1.28;80.53;100914.25;1747228;82;21089;-75
2021/03/06 02:35:17;;;;;;;17.52;10.55;;;;;;;1.23;80.67;100925.11;1747282;82;20962;-75
2021/03/06 02:37:59;;;;;;;15.83;9.55;;;;;;;1.17;80.71;100934.23;1747316;82;21069;-74
2021/03/06 02:40:40;;;;;;;17.62;10.68;;;;;;;1.17;80.81;100938.11;1820030;77;22672;-75
2021/03/06 02:43:09;;;;;;;14.68;9.50;;;;;;;1.09;80.97;100938.25;1756625;81;20943;-75
2021/03/06 02:45:38;;;;;;;12.23;8.90;;;;;;;1.08;81.12;100949.44;1735600;80;21475;-73
2021/03/06 02:48:07;;;;;;;12.47;8.33;;;;;;;1.03;81.33;100945.64;1756515;81;20931;-74
2021/03/06 02:50:35;;;;;;;13.90;8.83;;;;;;;0.98;81.30;100947.45;1766346;81;20962;-75
2021/03/06 02:53:03;;;;;;;14.10;8.35;;;;;;;0.95;81.32;100955.22;1756609;81;20955;-74
2021/03/06 02:55:32;;;;;;;13.20;8.70;;;;;;;0.96;81.21;100961.27;1753490;81;21041;-74
2021/03/06 02:58:24;;;;;;;10.80;7.12;;;;;;;0.96;81.27;100962.55;1756658;81;21033;-74
2021/03/06 03:01:03;;;;;;;12.88;7.47;;;;;;;0.91;81.45;100965.20;1766284;81;20967;-76
2021/03/06 03:03:49;;;;;;;13.32;8.00;;;;;;;0.86;81.54;100964.39;1756632;81;21078;-74
2021/03/06 03:06:25;;;;;;;13.98;7.75;;;;;;;0.81;81.57;100966.20;1766253;81;21065;-75
2021/03/06 03:09:13;;;;;;;13.08;9.03;;;;;;;0.77;81.58;100976.99;1756612;81;20942;-75
2021/03/06 03:12:10;;;;;;;9.48;6.40;;;;;;;0.75;81.46;100984.34;1766457;81;21423;-74
2021/03/06 03:15:01;;;;;;;11.97;7.28;;;;;;;0.70;81.31;100983.56;1756648;81;21594;-75
2021/03/06 03:17:42;;;;;;;11.55;6.83;;;;;;;0.61;81.21;100974.22;1766323;81;21014;-75
2021/03/06 03:20:33;;;;;;;8.83;5.87;;;;;;;0.55;81.17;100974.29;1756438;81;21026;-76
2021/03/06 03:23:15;;;;;;;7.58;4.33;;;;;;;0.51;81.18;100974.78;1745627;81;21014;-73
2021/03/06 03:25:45;;;;;;;7.33;4.28;;;;;;;0.52;80.91;100983.38;1752705;81;21386;-74
2021/03/06 03:28:13;;;;;;;7.30;4.53;;;;;;;0.52;80.96;100984.66;1766352;81;21385;-74
2021/03/06 03:30:41;;;;;;;7.12;3.22;;;;;;;0.54;80.95;100990.66;1756632;81;21018;-75
2021/03/06 03:33:10;;;;;;;6.47;4.15;;;;;;;0.54;80.69;100986.79;1738476;81;21014;-74
2021/03/06 03:35:40;;;;;;;7.42;3.95;;;;;;;0.50;80.50;100985.12;1756697;81;21439;-73
2021/03/06 03:38:09;;;;;;;6.33;3.62;;;;;;;0.47;80.56;100992.87;1754940;81;21365;-74
2021/03/06 03:40:38;;;;;;;6.62;3.60;;;;;;;0.50;80.58;100986.41;1747619;81;21416;-72
2021/03/06 03:43:06;;;;;;;7.08;4.15;;;;;;;0.53;80.49;100988.49;1815427;78;21353;-74
2021/03/06 03:45:33;;;;;;;8.25;4.08;;;;;;;0.53;80.41;100991.07;1815336;78;21381;-74
2021/03/06 03:48:03;;;;;;;6.22;3.42;;;;;;;0.48;80.31;100986.86;1758935;79;21360;-73
2021/03/06 03:50:31;;;;;;;8.25;4.33;;;;;;;0.43;80.41;100983.05;1815132;79;21815;-73
2021/03/06 03:52:59;;;;;;;9.38;3.90;;;;;;;0.42;80.50;100982.61;1814795;78;21447;-75
2021/03/06 03:55:26;;;;;;;7.50;4.17;;;;;;;0.44;80.46;100987.32;1783534;79;21397;-74
2021/03/06 03:57:55;;;;;;;7.25;4.20;;;;;;;0.44;80.73;100997.64;1814882;79;21476;-73
2021/03/06 04:00:23;;;;;;;5.10;4.10;;;;;;;0.46;80.97;100998.48;1814793;78;21377;-74
2021/03/06 04:02:51;;;;;;;5.25;4.35;;;;;;;0.48;80.91;101001.90;1814848;78;21809;-75
2021/03/06 04:05:21;;;;;;;8.33;4.40;;;;;;;0.47;80.82;101007.95;1814771;79;20962;-75
2021/03/06 04:07:51;;;;;;;9.40;4.28;;;;;;;0.48;80.67;101004.48;1814818;78;21125;-75
2021/03/06 04:10:22;;;;;;;7.42;3.72;;;;;;;0.46;80.62;101003.64;1814782;79;20994;-75
2021/03/06 04:12:53;;;;;;;6.45;3.72;;;;;;;0.44;80.50;100996.80;1814760;78;21018;-75
2021/03/06 04:15:22;;;;;;;6.70;4.12;;;;;;;0.41;80.31;100990.80;1814921;79;21791;-75
2021/03/06 04:17:51;;;;;;;3.87;3.33;;;;;;;0.36;80.13;101000.77;1814789;78;20994;-74
2021/03/06 04:20:22;;;;;;;5.08;3.72;;;;;;;0.36;79.98;100992.59;1814684;78;20959;-74
2021/03/06 04:22:49;;;;;;;6.60;3.45;;;;;;;0.36;79.71;101000.33;1814725;78;21006;-76
2021/03/06 04:25:17;;;;;;;5.17;3.47;;;;;;;0.31;79.86;101000.83;1814802;78;21029;-75
2021/03/06 04:27:45;;;;;;;9.85;4.10;;;;;;;0.30;79.91;100995.23;1814829;78;21802;-74
2021/03/06 04:30:14;;;;;;;8.05;4.15;;;;;;;0.31;79.90;100993.09;1814699;78;20955;-74
2021/03/06 04:32:42;;;;;;;5.53;3.77;;;;;;;0.35;79.69;100995.17;1814712;79;20935;-74
2021/03/06 04:35:10;;;;;;;7.83;4.10;;;;;;;0.36;79.54;101009.80;1814695;78;20911;-74
2021/03/06 04:37:39;;;;;;;5.47;3.72;;;;;;;0.36;79.47;101017.09;1814596;79;21149;-73
2021/03/06 04:40:10;;;;;;;5.28;3.87;;;;;;;0.35;79.62;101021.81;1817160;78;21433;-75
2021/03/06 04:42:38;;;;;;;5.28;3.95;;;;;;;0.35;79.65;101029.56;1820555;78;21196;-73
2021/03/06 04:45:07;;;;;;;5.85;3.98;;;;;;;0.37;79.65;101034.27;1820498;78;21337;-74
2021/03/06 04:47:43;;;;;;;5.42;3.42;;;;;;;0.41;79.57;101026.06;1820500;78;20943;-74
2021/03/06 04:50:11;;;;;;;6.50;4.60;;;;;;;0.46;79.58;101037.63;1820483;78;20946;-73
2021/03/06 04:52:41;;;;;;;8.23;4.90;;;;;;;0.43;79.77;101041.09;1820588;78;22117;-73
2021/03/06 04:55:10;;;;;;;6.62;3.85;;;;;;;0.38;79.98;101035.14;1820453;78;20926;-73
2021/03/06 04:57:38;;;;;;;5.90;4.12;;;;;;;0.31;80.08;101037.34;1820511;78;20990;-72
2021/03/06 05:00:08;;;;;;;4.90;3.77;;;;;;;0.28;80.00;101036.11;1820395;78;20895;-73
2021/03/06 05:02:37;;;;;;;7.25;4.33;;;;;;;0.26;80.09;101037.41;1820463;78;20942;-75
2021/03/06 05:05:09;;;;;;;4.97;3.83;;;;;;;0.23;80.19;101040.47;1820423;78;21239;-73
2021/03/06 05:07:37;;;;;;;6.10;3.75;;;;;;;0.17;80.26;101061.56;1820431;78;20970;-75
2021/03/06 05:10:07;;;;;;;5.58;3.90;;;;;;;0.16;80.22;101082.23;1820549;78;21516;-73
2021/03/06 05:12:36;;;;;;;5.95;4.40;;;;;;;0.17;80.22;101083.92;1820499;78;21487;-74
2021/03/06 05:15:07;;;;;;;7.40;4.50;;;;;;;0.18;80.23;101089.52;1820604;78;21313;-73
2021/03/06 05:17:35;;;;;;;6.37;4.05;;;;;;;0.17;80.29;101091.22;1820576;78;21104;-75
2021/03/06 05:20:07;;;;;;;6.15;4.08;;;;;;;0.17;80.35;101104.11;1820413;78;21472;-75
2021/03/06 05:22:34;;;;;;;5.25;4.05;;;;;;;0.19;80.31;101098.50;1820587;78;20951;-77
2021/03/06 05:25:04;;;;;;;5.47;3.62;;;;;;;0.23;80.21;101105.80;1820500;78;21345;-74
2021/03/06 05:27:33;;;;;;;4.60;3.45;;;;;;;0.26;80.32;101106.19;1820725;78;20954;-75
2021/03/06 05:30:01;;;;;;;5.45;4.20;;;;;;;0.26;80.35;101102.32;1820506;78;21194;-74
2021/03/06 05:32:31;;;;;;;5.35;4.10;;;;;;;0.26;80.20;101101.03;1820327;78;20998;-75
2021/03/06 05:34:59;;;;;;;6.50;4.35;;;;;;;0.28;80.09;101099.30;1820516;78;21601;-74
2021/03/06 05:37:27;;;;;;;3.95;3.55;;;;;;;0.36;79.96;101100.93;1820403;78;21002;-74
2021/03/06 05:39:55;;;;;;;6.75;4.58;;;;;;;0.38;79.80;101107.38;1819686;78;20931;-74
2021/03/06 05:42:23;;;;;;;7.28;4.35;;;;;;;0.39;79.85;101120.23;1818142;79;21639;-74
2021/03/06 05:44:52;;;;;;;8.58;3.85;;;;;;;0.45;79.83;101114.17;1818014;78;21334;-76
2021/03/06 05:47:23;;;;;;;6.53;3.77;;;;;;;0.51;79.51;101117.11;1818146;78;21006;-77
2021/03/06 05:49:51;;;;;;;5.40;3.42;;;;;;;0.57;79.09;101127.38;1818182;78;21579;-74
2021/03/06 05:52:20;;;;;;;6.33;3.70;;;;;;;0.58;78.73;101127.38;1818105;78;21563;-75
2021/03/06 05:54:49;;;;;;;3.95;2.40;;;;;;;0.61;78.55;101136.80;1818127;78;21792;-75
2021/03/06 05:57:17;;;;;;;3.65;2.55;;;;;;;0.60;78.10;101138.53;1818105;78;20942;-75
2021/03/06 05:59:45;;;;;;;4.00;3.00;;;;;;;0.63;77.75;101135.50;1818006;79;20935;-76
2021/03/06 06:02:18;;;;;;;4.50;2.60;;;;;;;0.67;77.63;101136.73;1817906;79;20883;-74
2021/03/06 06:04:47;;;;;;;3.00;2.22;;;;;;;0.71;77.09;101148.75;1792726;79;21460;-74
2021/03/06 06:07:16;;;;;;;3.50;2.00;;;;;;;0.75;77.15;101147.81;1818158;79;21178;-74
2021/03/06 06:09:47;;;;;;;3.25;2.35;;;;;;;0.80;76.85;101143.89;1818065;79;20955;-72
2021/03/06 06:12:15;;;;;;;4.12;2.02;;;;;;;0.87;76.40;101149.84;1818114;78;20942;-72
2021/03/06 06:14:47;;;;;;;8.48;2.37;;;;;;;0.91;76.08;101160.55;1818042;79;20931;-72
2021/03/06 06:17:15;;;;;;;2.47;2.12;;;;;;;0.92;75.78;101162.28;1818187;78;20903;-73
2021/03/06 06:19:43;;;;;;;3.10;2.12;;;;;;;0.90;75.83;101165.31;1817946;79;21760;-72
2021/03/06 06:22:18;;;;;;;4.67;2.92;;;;;;;0.89;75.72;101163.17;1818025;79;21014;-73
2021/03/06 06:24:48;;;;;;;4.47;2.92;;;;;;;0.91;75.74;101155.39;1818001;78;20895;-73
2021/03/06 06:27:31;;;;;;;3.22;2.40;;;;;;;1.00;75.49;101161.33;1818037;78;21004;-74
2021/03/06 06:30:01;;;;;;;4.42;3.08;;;;;;;1.07;75.38;101149.60;1818110;78;20998;-72
2021/03/06 06:32:43;;;;;;;5.58;2.60;;;;;;;1.14;75.35;101164.17;1818070;79;21424;-74
2021/03/06 06:35:14;;;;;;;3.92;2.75;;;;;;;1.22;75.12;101158.45;1818019;79;21511;-73
2021/03/06 06:38:04;;;;;;;4.55;3.22;;;;;;;1.35;74.95;101159.16;1818054;78;21006;-73
2021/03/06 06:40:35;;;;;;;2.92;2.55;;;;;;;1.50;75.12;101164.12;1816674;78;21579;-72
2021/03/06 06:43:25;;;;;;;4.05;2.37;;;;;;;1.68;74.52;101158.28;1814602;79;20935;-72
2021/03/06 06:45:53;;;;;;;5.53;2.95;;;;;;;1.82;74.03;101153.33;1814612;79;21508;-75
2021/03/06 06:48:24;;;;;;;3.98;2.67;;;;;;;1.98;73.75;101150.48;1814653;79;21523;-74
2021/03/06 06:50:55;;;;;;;4.15;2.70;;;;;;;2.13;73.25;101151.52;1783565;79;20958;-73
2021/03/06 06:53:28;;;;;;;4.00;2.70;;;;;;;2.26;72.76;101152.18;1757269;79;21084;-76
2021/03/06 06:55:56;;;;;;;3.92;2.70;;;;;;;2.36;71.83;101155.48;1814681;79;20930;-76
2021/03/06 06:58:33;;;;;;;17.80;3.45;;;;;;;2.42;71.76;101142.00;1810522;79;21499;-75
2021/03/06 07:01:24;;;;;;;10.95;4.90;;;;;;;2.51;71.77;101142.69;1814680;78;20907;-74
2021/03/06 07:04:03;;;;;;;8.65;5.00;;;;;;;2.64;71.79;101137.70;1814590;79;21052;-74
2021/03/06 07:06:32;;;;;;;6.17;4.70;;;;;;;2.79;70.71;101145.63;1809953;79;20994;-73
2021/03/06 07:09:12;;;;;;;7.33;4.60;;;;;;;2.87;70.46;101145.89;1814578;78;21006;-75
2021/03/06 07:11:43;;;;;;;5.00;3.45;;;;;;;2.94;70.43;101154.39;1814521;78;20943;-72
2021/03/06 07:14:11;;;;;;;5.62;3.45;;;;;;;3.03;70.10;101155.50;1814566;78;20954;-74
2021/03/06 07:16:59;;;;;;;5.60;3.65;;;;;;;3.10;69.44;101147.16;1814611;78;21376;-72
2021/03/06 07:19:31;;;;;;;6.25;2.98;;;;;;;3.16;68.68;101147.04;1814475;78;21046;-73
2021/03/06 07:21:59;;;;;;;4.58;3.02;;;;;;;3.23;68.62;101144.72;1814618;79;20979;-71
2021/03/06 07:24:28;;;;;;;4.05;2.52;;;;;;;3.29;68.25;101148.48;1814583;78;21366;-74
2021/03/06 07:26:59;;;;;;;4.17;3.52;;;;;;;3.42;68.19;101150.80;1814639;79;21148;-74
2021/03/06 07:29:28;;;;;;;3.08;2.45;;;;;;;3.63;68.27;101150.78;1814732;78;20957;-74
2021/03/06 07:31:57;;;;;;;3.62;1.95;;;;;;;3.95;68.09;101148.72;1814832;78;20931;-76
2021/03/06 07:34:28;;;;;;;3.50;2.27;;;;;;;4.24;67.03;101149.30;1814797;78;20931;-75
2021/03/06 07:37:07;;;;;;;6.25;2.47;;;;;;;4.43;65.80;101142.36;1814899;79;21472;-75
2021/03/06 07:39:42;;;;;;;2.87;2.40;;;;;;;4.47;64.54;101140.94;1814709;78;20958;-72
2021/03/06 07:42:43;;;;;;;3.42;2.30;;;;;;;4.43;64.47;101141.05;1814723;79;21471;-75
2021/03/06 07:45:19;;;;;;;3.02;1.82;;;;;;;4.46;63.74;101144.41;1814815;79;21137;-73
2021/03/06 07:47:55;;;;;;;3.50;2.67;;;;;;;4.43;63.58;101153.59;1814737;79;21021;-74
2021/03/06 07:50:28;;;;;;;4.12;2.55;;;;;;;4.43;63.95;101156.19;1814790;79;20953;-74
2021/03/06 07:52:58;;;;;;;;;;;;;;;4.52;64.02;101158.54;1817336;78;21033;-75
2021/03/06 07:55:27;;;;;;;4.92;2.33;;;;;;;4.66;63.69;101162.06;1814861;79;20140;-76
2021/03/06 07:58:11;;;;;;;2.98;2.52;;;;;;;4.66;62.83;101160.77;1814813;79;20935;-75
2021/03/06 08:00:58;;;;;;;3.58;2.83;;;;;;;4.64;63.25;101156.05;1814740;79;21363;-75
2021/03/06 08:03:34;;;;;;;4.22;2.05;;;;;;;4.70;63.46;101166.28;1814783;78;21203;-75
2021/03/06 08:06:23;;;;;;;3.90;2.05;;;;;;;4.77;62.98;101162.63;1814727;78;21546;-75
2021/03/06 08:08:58;;;;;;;1.75;1.50;;;;;;;4.76;62.46;101162.23;1814703;79;20951;-75
2021/03/06 08:11:37;;;;;;;3.67;2.05;;;;;;;4.68;62.44;101174.56;1814744;78;20903;-76
2021/03/06 08:14:07;;;;;;;3.98;1.80;;;;;;;4.70;62.95;101177.13;1814707;78;20938;-73
2021/03/06 08:16:36;;;;;;;2.45;1.35;;;;;;;4.83;62.85;101179.81;1810365;79;21373;-74
2021/03/06 08:19:16;;;;;;;4.80;1.67;;;;;;;4.99;62.58;101184.98;1814738;78;21372;-72
2021/03/06 08:21:50;;;;;;;3.15;2.05;;;;;;;5.05;62.29;101187.02;1814671;79;20943;-74
2021/03/06 08:24:23;;;;;;;2.83;2.45;;;;;;;5.10;62.36;101194.23;1814442;79;21062;-72
2021/03/06 08:27:09;;;;;;;4.70;2.33;;;;;;;5.10;62.15;101202.03;1814690;78;20958;-73
2021/03/06 08:29:41;;;;;;;1.77;1.57;;;;;;;5.07;61.16;101200.38;1813338;78;21790;-74
2021/03/06 08:32:34;;;;;;;3.75;1.90;;;;;;;5.17;60.74;101197.06;1814736;79;21500;-77
2021/03/06 08:35:21;;;;;;;2.83;1.72;;;;;;;5.30;60.90;101202.77;1814725;79;21120;-72
2021/03/06 08:37:50;;;;;;;4.80;1.70;;;;;;;5.49;60.96;101208.27;1814628;78;21029;-72
2021/03/06 08:40:23;;;;;;;3.20;1.52;;;;;;;5.68;59.87;101215.09;1814682;79;21531;-74
2021/03/06 08:42:53;;;;;;;3.20;1.55;;;;;;;5.83;59.21;101215.94;1814836;79;22263;-72
2021/03/06 08:45:24;;;;;;;2.47;2.05;;;;;;;5.99;58.82;101221.55;1814556;78;21013;-73
2021/03/06 08:48:03;;;;;;;3.35;2.10;;;;;;;6.01;57.99;101220.59;1814780;79;20939;-73
2021/03/06 08:50:39;;;;;;;4.87;1.90;;;;;;;5.91;58.55;101218.29;1814570;78;21479;-76
2021/03/06 08:53:11;;;;;;;3.15;2.20;;;;;;;5.89;58.71;101218.78;1814314;79;20907;-75
2021/03/06 08:55:43;;;;;;;3.60;1.98;;;;;;;5.79;58.39;101231.23;1814635;79;21357;-76
2021/03/06 08:58:14;;;;;;;3.45;2.30;;;;;;;5.76;58.59;101234.79;1814650;79;20939;-74
2021/03/06 09:00:51;;;;;;;3.75;2.30;;;;;;;5.71;58.42;101240.56;1814718;79;21444;-75
2021/03/06 09:03:25;;;;;;;4.00;1.92;;;;;;;5.65;58.37;101238.59;1814602;79;21117;-77
2021/03/06 09:05:58;;;;;;;3.65;2.05;;;;;;;5.61;58.82;101243.05;1814164;78;21324;-76
2021/03/06 09:08:28;;;;;;;4.50;2.37;;;;;;;5.61;58.84;101241.75;1814746;78;21196;-75
2021/03/06 09:10:58;;;;;;;2.92;2.02;;;;;;;5.79;58.71;101247.70;1814289;79;20950;-77
2021/03/06 09:13:30;;;;;;;2.72;1.30;;;;;;;6.06;58.66;101241.28;1814712;78;20931;-78
2021/03/06 09:16:05;;;;;;;1.27;1.10;;;;;;;6.38;56.97;101246.78;1814694;79;21599;-76
2021/03/06 09:18:35;;;;;;;2.37;1.27;;;;;;;6.56;55.27;101239.27;1814827;78;20919;-76
2021/03/06 09:21:10;;;;;;;1.37;1.20;;;;;;;6.75;55.30;101248.14;1814611;79;21444;-77
2021/03/06 09:23:41;;;;;;;1.87;1.57;;;;;;;6.85;53.93;101250.00;1814867;78;21277;-79
2021/03/06 09:26:16;;;;;;;4.42;2.00;;;;;;;6.81;53.30;101249.25;1814574;78;21237;-78
2021/03/06 09:34:10;;;;;;;2.12;1.72;;;;;;;7.08;53.97;101252.27;1852249;77;22364;-78
2021/03/06 09:36:40;;;;;;;3.52;2.05;;;;;;;7.20;53.96;101257.03;1750176;81;20987;-76
2021/03/06 09:39:09;;;;;;;3.90;2.25;;;;;;;7.37;53.83;101253.36;1820065;78;21124;-78
2021/03/06 09:41:38;;;;;;;3.55;2.55;;;;;;;7.56;52.95;101258.77;1819472;78;21014;-78
2021/03/06 09:44:09;;;;;;;4.40;3.42;;;;;;;7.71;52.16;101257.78;1819407;78;21416;-78
2021/03/06 09:46:37;;;;;;;5.97;3.30;;;;;;;7.88;51.11;101261.45;1819683;78;20994;-77
2021/03/06 09:49:10;;;;;;;6.10;3.65;;;;;;;8.00;49.50;101253.59;1749722;81;21306;-76
2021/03/06 09:51:53;;;;;;;6.15;3.45;;;;;;;8.11;49.53;101261.01;1815950;78;21391;-77
2021/03/06 09:54:25;;;;;;;5.70;3.37;;;;;;;8.13;48.72;101263.57;1749854;81;20977;-78
2021/03/06 09:56:56;;;;;;;5.25;3.80;;;;;;;8.07;48.32;101264.22;1819545;78;21022;-79
2021/03/06 09:59:26;;;;;;;5.45;4.12;;;;;;;7.89;48.76;101258.38;1750135;81;20953;-77
2021/03/06 10:01:54;;;;;;;4.83;3.90;;;;;;;7.75;49.17;101255.45;1819791;78;20934;-77
2021/03/06 10:04:24;;;;;;;6.12;3.87;;;;;;;7.60;49.38;101256.45;1819702;78;21904;-77
2021/03/06 10:06:54;;;;;;;11.20;4.03;;;;;;;7.38;49.41;101257.69;1819483;78;20950;-78
2021/03/06 10:09:28;;;;;;;4.92;3.87;;;;;;;7.16;49.65;101258.03;1749951;81;20946;-78
2021/03/06 10:12:08;;;;;;;7.58;4.65;;;;;;;7.06;50.48;101254.91;1819625;78;21017;-78
2021/03/06 10:14:35;;;;;;;7.97;4.58;;;;;;;7.00;50.68;101259.03;1819890;78;21010;-78
2021/03/06 10:17:09;;;;;;;5.37;4.12;;;;;;;6.81;50.49;101249.25;1750307;81;22565;-78
2021/03/06 10:19:49;;;;;;;6.70;4.70;;;;;;;6.73;50.41;101250.41;1818952;78;21062;-76
2021/03/06 10:22:20;;;;;;;6.10;4.50;;;;;;;6.83;51.02;101252.66;1750134;81;21025;-77
2021/03/06 10:25:06;;;;;;;4.90;3.77;;;;;;;7.15;51.07;101249.37;1819716;78;21009;-79
2021/03/06 10:27:43;;;;;;;6.20;4.62;;;;;;;7.52;50.49;101248.04;1749757;81;21001;-79
2021/03/06 10:30:27;;;;;;;5.70;4.12;;;;;;;7.88;48.36;101245.78;1820085;78;22304;-78
2021/03/06 10:33:01;;;;;;;5.28;3.90;;;;;;;8.27;47.35;101252.98;1821761;78;20970;-77
2021/03/06 10:35:49;;;;;;;4.65;3.87;;;;;;;8.60;45.94;101253.83;1825754;78;21045;-80
2021/03/06 10:38:23;;;;;;;4.95;3.90;;;;;;;8.82;44.76;101252.94;1755674;81;21103;-88
2021/03/06 10:40:55;;;;;;;5.20;3.52;;;;;;;8.92;44.46;101245.94;1784059;80;20966;-80
2021/03/06 10:43:34;;;;;;;6.08;3.70;;;;;;;8.99;44.51;101243.91;1755746;81;21484;-80
2021/03/06 10:46:18;;;;;;;5.12;3.58;;;;;;;9.09;44.21;101253.07;1786173;80;20970;-80
2021/03/06 10:49:00;;;;;;;4.47;2.90;;;;;;;9.32;43.18;101242.05;1755162;81;21034;-82
2021/03/06 10:51:50;;;;;;;4.15;3.45;;;;;;;9.53;42.47;101236.28;1786341;80;21021;-81
2021/03/06 10:54:21;;;;;;;4.17;2.87;;;;;;;9.64;40.14;101225.32;1755175;81;21005;-75
2021/03/06 10:57:06;;;;;;;4.45;3.22;;;;;;;9.61;40.52;101236.79;1786463;80;21372;-74
2021/03/06 10:59:35;;;;;;;;;;;;;;;9.59;40.72;101233.86;1758026;81;21033;-79
2021/03/06 11:02:04;;;;;;;3.12;2.20;;;;;;;9.46;40.77;101233.09;1786674;80;20156;-80
2021/03/06 11:04:34;;;;;;;2.98;2.00;;;;;;;9.15;41.14;101238.02;1755692;81;20955;-78
2021/03/06 11:07:06;;;;;;;2.27;2.08;;;;;;;8.84;41.55;101243.26;1786292;80;20950;-82
2021/03/06 11:09:37;;;;;;;4.10;2.60;;;;;;;8.93;42.36;101251.55;1755120;81;20971;-78
2021/03/06 11:12:19;;;;;;;3.72;2.27;;;;;;;9.17;42.39;101243.56;1786113;80;20962;-77
2021/03/06 11:14:48;;;;;;;3.70;2.92;;;;;;;9.07;42.60;101240.52;1755203;81;21460;-76
2021/03/06 11:17:16;;;;;;;3.10;2.17;;;;;;;8.98;42.82;101236.13;1783055;80;21026;-74
2021/03/06 11:19:44;;;;;;;2.35;1.60;;;;;;;8.83;43.53;101227.19;1755143;81;21097;-76
2021/03/06 11:22:13;;;;;;;2.75;1.47;;;;;;;8.69;42.25;101228.62;1786204;80;21480;-75
2021/03/06 11:24:40;;;;;;;2.42;2.10;;;;;;;8.80;40.56;101225.53;1755019;81;20982;-78
2021/03/06 11:27:10;;;;;;;2.27;1.47;;;;;;;8.76;40.12;101223.11;1785235;80;20970;-77
2021/03/06 11:29:38;;;;;;;1.32;1.10;;;;;;;8.75;39.65;101222.27;1755131;81;21436;-77
2021/03/06 11:32:06;;;;;;;3.27;1.47;;;;;;;8.82;39.59;101238.55;1786371;80;21073;-77
2021/03/06 11:34:34;;;;;;;1.30;1.12;;;;;;;9.09;38.50;101243.05;1750801;81;21116;-77
2021/03/06 11:37:03;;;;;;;1.60;1.27;;;;;;;9.30;37.33;101237.33;1781253;80;21544;-77
2021/03/06 11:39:30;;;;;;;2.45;1.35;;;;;;;9.52;38.10;101239.37;1750346;82;20963;-77
2021/03/06 11:41:59;;;;;;;2.30;1.65;;;;;;;9.66;37.87;101247.89;1781457;80;21535;-78
2021/03/06 11:44:27;;;;;;;2.55;1.40;;;;;;;9.68;38.07;101250.45;1750464;82;21010;-82
2021/03/06 11:46:55;;;;;;;2.25;1.22;;;;;;;9.70;38.10;101242.06;1781361;80;21827;-79
2021/03/06 11:49:23;;;;;;;2.85;1.98;;;;;;;9.71;37.53;101258.16;1750404;82;20966;-76
2021/03/06 11:51:51;;;;;;;2.52;1.40;;;;;;;9.67;36.92;101262.70;1781328;80;21002;-79
2021/03/06 11:54:20;;;;;;;1.80;1.30;;;;;;;9.51;36.74;101257.29;1751103;82;21026;-79
2021/03/06 11:56:48;;;;;;;2.87;1.15;;;;;;;9.46;37.20;101251.42;1781573;80;21023;-77
2021/03/06 11:59:16;;;;;;;2.70;1.62;;;;;;;9.38;37.44;101254.83;1750550;82;22109;-78